Time;durP1;ratioP1;P1;durP2;ratioP2;P2;SDS_P1;SDS_P2;PMS_P1;PMS_P2;Temp;Humidity;BMP_temperature;BMP_pressure;BME280_temperature;BME280_humidity;BME280_pressure;Samples;Min_cycle;Max_cycle;Signal;HPM_P1;HPM_P2
2022/08/11 00:00:42;;;;;;;2.70;1.63;;;17.60;81.50;;;;;;5036251;28;20466;-52
2022/08/11 00:03:12;;;;;;;3.77;1.77;;;17.60;76.20;;;;;;5025128;28;20464;-52
2022/08/11 00:05:46;;;;;;;1.90;1.80;;;17.50;78.80;;;;;;5030346;28;20521;-52
2022/08/11 00:08:21;;;;;;;2.10;2.00;;;17.40;78.70;;;;;;5029856;28;20509;-51
2022/08/11 00:10:53;;;;;;;2.43;1.80;;;17.40;77.20;;;;;;5029296;28;20502;-51
2022/08/11 00:13:21;;;;;;;2.40;1.73;;;17.40;77.60;;;;;;5035574;28;20577;-52
2022/08/11 00:15:49;;;;;;;4.40;2.10;;;17.30;77.20;;;;;;5028564;28;20502;-52
2022/08/11 00:18:16;;;;;;;2.73;2.00;;;17.30;76.40;;;;;;5033885;28;20514;-51
2022/08/11 00:20:47;;;;;;;2.10;1.63;;;17.30;75.20;;;;;;5027898;28;20547;-51
2022/08/11 00:23:16;;;;;;;1.70;1.60;;;17.30;73.20;;;;;;5036074;28;20461;-51
2022/08/11 00:25:45;;;;;;;2.53;2.33;;;17.20;71.80;;;;;;5033373;28;20455;-51
2022/08/11 00:28:24;;;;;;;4.40;1.87;;;17.20;71.80;;;;;;5029882;28;20903;-53
2022/08/11 00:30:53;;;;;;;2.33;1.80;;;17.20;71.50;;;;;;5027931;28;20645;-51
2022/08/11 00:33:22;;;;;;;2.80;1.80;;;17.20;72.30;;;;;;5027796;28;20486;-52
2022/08/11 00:35:51;;;;;;;2.90;2.33;;;17.10;70.60;;;;;;5028319;28;20498;-52
2022/08/11 00:38:24;;;;;;;2.27;2.17;;;17.10;72.00;;;;;;5028708;28;20483;-52
2022/08/11 00:40:56;;;;;;;5.77;1.70;;;17.00;70.30;;;;;;5026709;28;21995;-52
2022/08/11 00:43:38;;;;;;;1.77;1.50;;;17.00;68.70;;;;;;5030708;28;20482;-51
2022/08/11 00:46:15;;;;;;;2.10;1.90;;;17.00;68.10;;;;;;5037898;28;20842;-52
2022/08/11 00:48:55;;;;;;;5.57;1.67;;;17.00;67.00;;;;;;5039591;28;20425;-52
2022/08/11 00:51:42;;;;;;;6.70;1.70;;;17.00;68.20;;;;;;5027508;28;20486;-53
2022/08/11 00:54:26;;;;;;;1.87;1.73;;;17.00;64.40;;;;;;5026202;28;20495;-52
2022/08/11 00:57:25;;;;;;;1.60;1.50;;;17.00;65.50;;;;;;5027799;28;20486;-51
2022/08/11 01:00:14;;;;;;;4.20;1.97;;;17.00;65.00;;;;;;5016788;28;20489;-52
2022/08/11 01:03:12;;;;;;;1.93;1.70;;;17.00;67.70;;;;;;5025708;28;20500;-52
2022/08/11 01:05:55;;;;;;;1.70;1.60;;;16.90;67.10;;;;;;5024049;28;20491;-51
2022/08/11 01:09:06;;;;;;;1.83;1.73;;;16.90;63.90;;;;;;5025467;28;20500;-52
2022/08/11 01:11:50;;;;;;;3.40;1.47;;;16.80;62.70;;;;;;5027758;28;20453;-52
2022/08/11 01:14:40;;;;;;;2.70;1.67;;;16.80;60.40;;;;;;5027473;28;20470;-51
2022/08/11 01:17:54;;;;;;;2.77;1.57;;;16.80;61.60;;;;;;5020130;28;20566;-51
2022/08/11 01:21:08;;;;;;;3.20;1.83;;;16.70;60.90;;;;;;5022343;28;20459;-52
2022/08/11 01:24:37;;;;;;;5.33;1.97;;;16.70;61.30;;;;;;4986750;28;20480;-52
2022/08/11 01:27:21;;;;;;;2.40;2.20;;;16.70;57.90;;;;;;5009366;28;20457;-52
2022/08/11 01:30:13;;;;;;;6.27;2.40;;;16.70;60.00;;;;;;5037163;28;20535;-52
2022/08/11 01:33:39;;;;;;;1.70;1.60;;;16.70;54.80;;;;;;5031509;28;20459;-52
2022/08/11 01:36:47;;;;;;;2.20;1.70;;;16.60;56.40;;;;;;5026246;28;20465;-52
2022/08/11 01:39:50;;;;;;;3.83;1.57;;;16.50;53.90;;;;;;4965777;28;20458;-52
2022/08/11 01:45:47;;;;;;;1.60;1.27;;;16.50;53.60;;;;;;5031075;28;20526;-52
2022/08/11 01:48:20;;;;;;;1.73;1.63;;;16.40;47.40;;;;;;5031833;28;20473;-53
2022/08/11 01:51:02;;;;;;;2.90;1.97;;;16.40;47.90;;;;;;5030666;28;20459;-52
2022/08/11 01:53:38;;;;;;;2.50;1.70;;;16.30;44.50;;;;;;5022640;28;20486;-52
2022/08/11 01:56:18;;;;;;;1.77;1.60;;;16.20;41.50;;;;;;5029718;28;20967;-53
2022/08/11 01:58:49;;;;;;;1.73;1.60;;;16.20;41.80;;;;;;5031445;28;20502;-52
2022/08/11 02:01:37;;;;;;;3.20;1.80;;;16.20;41.80;;;;;;5035191;28;20463;-51
2022/08/11 02:04:19;;;;;;;1.80;1.63;;;16.20;42.30;;;;;;5030699;28;20504;-52
2022/08/11 02:06:56;;;;;;;2.80;1.60;;;16.10;39.30;;;;;;5033118;28;20459;-52
2022/08/11 02:09:56;;;;;;;1.73;1.33;;;16.10;38.80;;;;;;5027974;28;20458;-52
2022/08/11 02:12:39;;;;;;;2.80;1.77;;;16.10;38.00;;;;;;5026429;28;20509;-52
2022/08/11 02:15:12;;;;;;;2.33;2.10;;;16.00;35.90;;;;;;5032136;28;20991;-52
2022/08/11 02:17:53;;;;;;;1.50;1.50;;;15.90;34.40;;;;;;5037443;28;21076;-52
2022/08/11 02:23:41;;;;;;;4.60;1.90;;;15.80;30.70;;;;;;5035336;28;20572;-52
2022/08/11 02:26:16;;;;;;;5.43;1.50;;;15.80;29.00;;;;;;5035149;28;20482;-52
2022/08/11 02:28:53;;;;;;;1.80;1.70;;;15.80;26.90;;;;;;5030780;28;20458;-51
2022/08/11 02:34:19;;;;;;;2.63;1.67;;;15.70;23.20;;;;;;5031290;28;20481;-52
2022/08/11 02:36:59;;;;;;;1.87;1.67;;;15.70;74.50;;;;;;5032984;28;20466;-52
2022/08/11 02:39:34;;;;;;;2.10;1.90;;;15.70;20.50;;;;;;5041103;28;20873;-52
2022/08/11 02:42:25;;;;;;;2.33;2.13;;;15.60;87.40;;;;;;5036957;28;20458;-52
2022/08/11 02:45:11;;;;;;;2.20;1.87;;;15.50;99.90;;;;;;5031162;28;20486;-53
2022/08/11 02:49:52;;;;;;;8.23;2.30;;;15.40;99.90;;;;;;5034815;28;20486;-52
2022/08/11 02:50:36;;;;;;;1.93;1.83;;;15.40;99.90;;;;;;5031959;28;20546;-52
2022/08/11 02:53:10;;;;;;;11.97;2.37;;;15.30;99.90;;;;;;5031950;28;20972;-53
2022/08/11 02:55:50;;;;;;;6.70;2.40;;;15.20;99.90;;;;;;5036209;28;20465;-52
2022/08/11 02:58:29;;;;;;;1.67;1.57;;;15.20;99.90;;;;;;5025560;28;20513;-52
2022/08/11 03:01:06;;;;;;;3.30;1.90;;;15.10;99.90;;;;;;5031041;28;20470;-52
2022/08/11 03:03:40;;;;;;;1.87;1.77;;;15.10;99.90;;;;;;5029564;28;20918;-52
2022/08/11 03:06:12;;;;;;;6.50;2.03;;;15.00;99.90;;;;;;5029963;28;20515;-53
2022/08/11 03:08:50;;;;;;;3.67;1.83;;;15.00;99.90;;;;;;5035352;28;21204;-52
2022/08/11 03:17:23;;;;;;;2.27;2.13;;;14.80;99.90;;;;;;5004685;28;20451;-51
2022/08/11 03:20:05;;;;;;;3.90;1.47;;;14.80;99.90;;;;;;5036756;28;20952;-52
2022/08/11 03:22:37;;;;;;;2.10;1.57;;;14.80;99.90;;;;;;5030926;28;20516;-52
2022/08/11 03:25:10;;;;;;;2.87;2.57;;;14.70;99.90;;;;;;5027939;28;20484;-52
2022/08/11 03:27:48;;;;;;;5.63;3.50;;;14.70;99.90;;;;;;5042524;28;20856;-53
2022/08/11 03:30:19;;;;;;;3.37;1.83;;;14.70;99.90;;;;;;5020034;28;20462;-52
2022/08/11 03:35:45;;;;;;;1.97;1.87;;;14.60;99.90;;;;;;5018798;28;20451;-52
2022/08/11 03:38:15;;;;;;;2.10;1.93;;;14.60;99.90;;;;;;5037342;28;20999;-52
2022/08/11 03:43:54;;;;;;;3.83;2.33;;;14.50;99.90;;;;;;5029015;28;20485;-52
2022/08/11 03:46:29;;;;;;;2.47;2.27;;;14.50;99.90;;;;;;5031439;28;20454;-52
2022/08/11 03:49:05;;;;;;;3.43;2.50;;;14.50;99.90;;;;;;5026938;28;20899;-53
2022/08/11 03:51:44;;;;;;;2.33;2.20;;;14.40;99.90;;;;;;5034477;28;20457;-52
2022/08/11 03:54:17;;;;;;;2.17;2.07;;;14.40;99.90;;;;;;5040778;28;20540;-51
2022/08/11 03:57:26;;;;;;;2.50;2.30;;;14.40;99.90;;;;;;5028987;28;20455;-51
2022/08/11 04:00:17;;;;;;;2.40;2.23;;;14.30;99.90;;;;;;5032438;28;20455;-52
2022/08/11 04:03:23;;;;;;;2.10;1.90;;;14.30;99.90;;;;;;5026934;28;20450;-51
2022/08/11 04:06:20;;;;;;;2.50;1.73;;;14.30;99.90;;;;;;5036124;28;20470;-52
2022/08/11 04:09:39;;;;;;;1.53;1.43;;;14.30;99.90;;;;;;5034642;28;20513;-52
2022/08/11 04:12:26;;;;;;;2.37;2.27;;;14.30;99.90;;;;;;5024518;28;20455;-52
2022/08/11 04:18:26;;;;;;;7.70;1.90;;;14.30;99.90;;;;;;5030060;28;21058;-51
2022/08/11 04:21:24;;;;;;;2.37;2.27;;;14.40;99.90;;;;;;5026379;28;20459;-52
2022/08/11 04:24:40;;;;;;;3.13;2.30;;;14.40;99.90;;;;;;5027030;28;20483;-52
2022/08/11 04:27:29;;;;;;;2.57;2.37;;;14.40;99.90;;;;;;5028951;28;20450;-53
2022/08/11 04:30:07;;;;;;;2.03;1.93;;;14.50;99.90;;;;;;5030394;28;20466;-52
2022/08/11 04:33:16;;;;;;;3.10;1.93;;;14.50;99.90;;;;;;5026097;28;20957;-53
2022/08/11 04:35:57;;;;;;;3.77;1.87;;;14.50;99.90;;;;;;5011106;28;20550;-53
2022/08/11 04:38:58;;;;;;;2.40;2.20;;;14.60;99.90;;;;;;5030460;28;20876;-51
2022/08/11 04:45:23;;;;;;;4.23;2.50;;;14.70;99.90;;;;;;5019815;28;20467;-53
2022/08/11 05:03:28;;;;;;;2.93;2.33;;;15.10;99.90;;;;;;5032050;28;20559;-51
2022/08/11 05:06:28;;;;;;;3.20;2.33;;;15.10;99.90;;;;;;5030854;28;20457;-51
2022/08/11 05:09:25;;;;;;;3.07;2.00;;;15.20;99.90;;;;;;5003538;28;20466;-51
2022/08/11 05:12:37;;;;;;;2.67;2.47;;;15.30;99.90;;;;;;5027031;28;20865;-51
2022/08/11 05:35:00;;;;;;;2.70;2.50;;;16.10;99.90;;;;;;5034023;28;20528;-52
2022/08/11 05:37:38;;;;;;;2.47;2.30;;;16.20;99.90;;;;;;5027812;28;20516;-53
2022/08/11 05:56:55;;;;;;;3.23;2.93;;;17.00;32.10;;;;;;5024895;28;20532;-54
2022/08/11 05:59:23;;;;;;;3.27;2.93;;;17.10;37.00;;;;;;5024392;28;20506;-52
2022/08/11 06:01:50;;;;;;;9.53;2.70;;;17.20;38.70;;;;;;5030065;28;20466;-52
2022/08/11 06:04:21;;;;;;;4.60;3.53;;;17.30;43.20;;;;;;5028252;28;20568;-52
2022/08/11 06:06:57;;;;;;;7.53;3.37;;;17.40;45.40;;;;;;5032242;28;20500;-52
2022/08/11 06:09:26;;;;;;;10.67;3.63;;;17.50;51.20;;;;;;5032039;28;20450;-51
2022/08/11 06:12:08;;;;;;;3.30;2.87;;;17.70;55.20;;;;;;5037493;28;20536;-51
2022/08/11 06:14:41;;;;;;;3.53;3.23;;;17.70;61.60;;;;;;5030156;28;20540;-53
2022/08/11 06:17:08;;;;;;;3.43;2.87;;;17.90;63.90;;;;;;5026167;28;20481;-51
2022/08/11 06:19:39;;;;;;;10.30;3.27;;;18.00;72.00;;;;;;5033864;28;20898;-51
2022/08/11 06:22:12;;;;;;;16.20;3.30;;;18.10;77.40;;;;;;5028260;28;20454;-53
2022/08/11 06:24:40;;;;;;;6.80;3.27;;;18.30;80.10;;;;;;5029094;28;20470;-51
2022/08/11 06:27:09;;;;;;;8.67;3.80;;;18.40;86.10;;;;;;5030425;28;20528;-52
2022/08/11 06:29:40;;;;;;;4.37;3.97;;;18.60;89.40;;;;;;5029861;28;20482;-52
2022/08/11 06:32:11;;;;;;;7.77;4.40;;;18.70;90.60;;;;;;5029863;28;20451;-52
2022/08/11 06:34:54;;;;;;;3.87;3.57;;;18.80;98.90;;;;;;5039447;28;20480;-52
2022/08/11 06:37:30;;;;;;;10.27;4.23;;;19.00;99.90;;;;;;5030685;28;20463;-51
2022/08/11 06:40:07;;;;;;;4.17;3.77;;;19.40;99.90;;;;;;5039526;28;20481;-51
2022/08/11 06:42:54;;;;;;;14.33;3.60;;;19.50;99.90;;;;;;5028933;28;20505;-52
2022/08/11 06:45:30;;;;;;;8.70;3.80;;;19.70;99.90;;;;;;5033379;28;20542;-51
2022/08/11 06:47:59;;;;;;;6.30;3.83;;;19.80;99.90;;;;;;5036136;28;20458;-52
2022/08/11 06:53:12;;;;;;;3.83;3.53;;;20.00;99.90;;;;;;5021137;28;21026;-51
2022/08/11 07:01:22;;;;;;;9.90;4.03;;;20.20;99.90;;;;;;5028743;28;20820;-51
2022/08/11 07:03:56;;;;;;;8.83;3.70;;;20.30;99.90;;;;;;5029258;28;20478;-53
2022/08/11 07:06:37;;;;;;;10.40;3.40;;;20.40;99.90;;;;;;5032555;28;20503;-51
2022/08/11 07:29:11;;;;;;;3.00;2.80;;;21.80;99.90;;;;;;5032395;28;20433;-51
2022/08/11 07:31:43;;;;;;;5.20;3.50;;;21.80;99.90;;;;;;5032312;28;20541;-52
2022/08/11 07:34:20;;;;;;;6.50;3.77;;;22.00;99.90;;;;;;5027878;28;20541;-51
2022/08/11 07:36:51;;;;;;;4.53;3.60;;;22.00;99.90;;;;;;5025565;28;20455;-52
2022/08/11 07:39:21;;;;;;;5.03;3.80;;;22.00;99.90;;;;;;5028105;28;20831;-53
2022/08/11 07:41:50;;;;;;;5.77;4.33;;;22.10;99.90;;;;;;5030283;28;20513;-52
2022/08/11 07:44:17;;;;;;;9.00;3.20;;;22.10;99.90;;;;;;5032007;28;20479;-52
2022/08/11 07:52:29;;;;;;;5.00;3.93;;;22.50;99.90;;;;;;5025386;28;20972;-52
2022/08/11 07:54:57;;;;;;;9.80;3.90;;;22.60;99.90;;;;;;5028849;28;20578;-52
2022/08/11 08:19:28;;;;;;;6.67;3.90;;;23.50;99.90;;;;;;5045867;28;20836;-52
2022/08/11 08:21:55;;;;;;;9.43;3.63;;;23.60;99.90;;;;;;5043099;28;20895;-53
2022/08/11 08:24:22;;;;;;;7.30;3.40;;;23.70;99.90;;;;;;5037338;28;20537;-53
2022/08/11 08:26:59;;;;;;;3.80;3.40;;;23.80;99.90;;;;;;5027669;28;20500;-53
2022/08/11 08:32:11;;;;;;;7.73;3.57;;;24.00;99.90;;;;;;5025902;28;20441;-52
2022/08/11 08:34:40;;;;;;;11.83;4.70;;;24.10;99.90;;;;;;5032035;28;21643;-51
2022/08/11 08:37:07;;;;;;;5.30;3.30;;;24.30;99.90;;;;;;5025143;28;20472;-52
2022/08/11 08:39:36;;;;;;;4.37;4.00;;;24.40;99.90;;;;;;5029456;28;20891;-52
2022/08/11 08:42:06;;;;;;;4.90;3.57;;;24.60;99.90;;;;;;5027494;28;20465;-52
2022/08/11 08:44:36;;;;;;;5.87;3.10;;;24.70;99.90;;;;;;5027135;28;21372;-52
2022/08/11 08:47:05;;;;;;;9.67;2.70;;;24.80;99.90;;;;;;5025678;28;20502;-52
2022/08/11 08:49:35;;;;;;;8.40;2.90;;;24.90;99.90;;;;;;5031310;28;20454;-52
2022/08/11 08:52:07;;;;;;;3.93;2.97;;;24.90;99.90;;;;;;5028700;28;20491;-52
2022/08/11 08:54:37;;;;;;;3.63;3.20;;;25.10;99.90;;;;;;5039028;28;20876;-51
2022/08/11 08:57:06;;;;;;;5.23;2.77;;;25.20;99.90;;;;;;5028422;28;20455;-52
2022/08/11 08:59:39;;;;;;;8.27;2.83;;;25.30;99.90;;;;;;5024368;28;20505;-52
2022/08/11 09:02:07;;;;;;;4.77;2.60;;;25.50;99.90;;;;;;5027531;28;20462;-52
2022/08/11 09:04:34;;;;;;;13.80;2.90;;;25.90;99.90;;;;;;5025456;28;20486;-53
2022/08/11 09:07:11;;;;;;;11.30;3.23;;;26.30;99.90;;;;;;5027293;28;20457;-53
2022/08/11 09:09:41;;;;;;;9.93;2.70;;;26.40;99.90;;;;;;5026864;28;20558;-52
2022/08/11 09:12:09;;;;;;;10.33;3.07;;;26.60;99.90;;;;;;5025178;28;20489;-52
2022/08/11 09:17:23;;;;;;;8.43;3.17;;;26.90;99.90;;;;;;5032723;28;20993;-53
2022/08/11 09:19:57;;;;;;;11.23;3.13;;;27.00;99.90;;;;;;5037757;28;20494;-52
2022/08/11 09:27:56;;;;;;;2.63;2.17;;;26.60;99.90;;;;;;5035607;28;20966;-52
2022/08/11 09:30:25;;;;;;;3.40;2.83;;;26.90;99.90;;;;;;5038341;28;20830;-52
2022/08/11 09:32:56;;;;;;;7.90;2.87;;;26.90;99.90;;;;;;5027176;28;20469;-52
2022/08/11 09:35:25;;;;;;;7.63;2.87;;;26.90;99.90;;;;;;5038308;28;21042;-52
2022/08/11 09:40:39;;;;;;;8.93;2.53;;;27.10;99.90;;;;;;5027165;28;20560;-53
2022/08/11 09:45:55;;;;;;;4.93;2.90;;;27.10;99.90;;;;;;5035651;28;20963;-52
2022/08/11 09:48:24;;;;;;;4.37;2.47;;;27.30;99.90;;;;;;5026952;28;20516;-52
2022/08/11 09:50:52;;;;;;;4.00;2.40;;;27.50;99.90;;;;;;5031394;28;20943;-52
2022/08/11 09:53:22;;;;;;;9.30;2.50;;;27.70;99.90;;;;;;5022070;28;20829;-53
2022/08/11 09:55:50;;;;;;;11.27;2.73;;;27.90;99.90;;;;;;5026436;28;20462;-52
2022/08/11 09:58:16;;;;;;;5.20;2.93;;;27.90;99.90;;;;;;5029250;28;21014;-52
2022/08/11 10:00:45;;;;;;;4.10;2.30;;;27.90;99.90;;;;;;5043900;28;20477;-52
2022/08/11 10:03:15;;;;;;;7.33;2.90;;;28.00;99.90;;;;;;5036045;28;20458;-52
2022/08/11 10:08:33;;;;;;;3.93;2.47;;;27.90;99.90;;;;;;5037123;28;20453;-52
2022/08/11 10:11:00;;;;;;;5.20;2.23;;;27.90;99.90;;;;;;5031171;28;21063;-51
2022/08/11 10:13:33;;;;;;;4.13;2.63;;;27.90;99.90;;;;;;5030853;28;20439;-52
2022/08/11 10:16:02;;;;;;;4.13;2.17;;;27.80;99.90;;;;;;5030673;28;20517;-52
2022/08/11 10:18:48;;;;;;;3.60;2.33;;;27.80;99.90;;;;;;5032854;28;20463;-52
2022/08/11 10:21:23;;;;;;;8.20;2.50;;;27.90;99.90;;;;;;5031483;28;20470;-53
2022/08/11 10:26:53;;;;;;;3.10;2.37;;;27.80;99.90;;;;;;5032907;28;20592;-51
2022/08/11 10:34:51;;;;;;;2.90;2.50;;;28.30;99.90;;;;;;5035229;28;20955;-52
2022/08/11 10:37:22;;;;;;;9.67;2.40;;;28.30;99.90;;;;;;5035926;28;20454;-52
2022/08/11 10:39:50;;;;;;;5.50;2.10;;;28.40;99.90;;;;;;5033438;28;20514;-52
2022/08/11 10:47:33;;;;;;;2.27;2.00;;;28.60;99.90;;;;;;5037566;28;20582;-51
2022/08/11 10:47:52;;;;;;;3.13;2.00;;;28.40;99.90;;;;;;5026906;28;20503;-52
2022/08/11 10:58:47;;;;;;;5.47;3.37;;;28.30;99.90;;;;;;5031544;28;21078;-52
2022/08/11 11:01:16;;;;;;;2.23;2.03;;;28.40;99.90;;;;;;5030241;28;20463;-51
2022/08/11 11:03:43;;;;;;;7.87;2.73;;;28.60;99.90;;;;;;5024287;28;20490;-51
2022/08/11 11:06:33;;;;;;;3.17;2.00;;;28.40;99.90;;;;;;5036901;28;20458;-52
2022/08/11 11:09:17;;;;;;;2.20;2.10;;;28.50;99.90;;;;;;5035599;28;20434;-52
2022/08/11 11:20:18;;;;;;;3.30;1.97;;;28.90;99.90;;;;;;5027412;28;20498;-52
2022/08/11 11:22:51;;;;;;;2.77;2.03;;;28.90;99.90;;;;;;5029788;28;20537;-52
2022/08/11 11:25:25;;;;;;;5.67;2.00;;;29.00;99.90;;;;;;5025229;28;20510;-52
2022/08/11 11:28:10;;;;;;;2.40;2.20;;;29.00;99.90;;;;;;5028113;28;20521;-51
2022/08/11 11:30:48;;;;;;;9.10;2.30;;;28.70;99.90;;;;;;5027952;28;20485;-52
2022/08/11 11:33:22;;;;;;;7.83;1.97;;;28.60;99.90;;;;;;5033874;28;20458;-51
2022/08/11 11:36:01;;;;;;;7.53;2.33;;;28.70;99.90;;;;;;5036416;28;20462;-52
2022/08/11 11:38:29;;;;;;;9.23;2.30;;;28.80;99.90;;;;;;5038333;28;20515;-52
2022/08/11 11:43:42;;;;;;;3.57;2.40;;;29.00;99.90;;;;;;5025799;28;20620;-52
2022/08/11 11:46:10;;;;;;;2.07;1.90;;;29.10;99.90;;;;;;5036112;28;20512;-51
2022/08/11 11:48:38;;;;;;;2.10;2.00;;;29.20;99.90;;;;;;5040319;28;20593;-52
2022/08/11 11:51:05;;;;;;;2.47;2.37;;;29.30;99.90;;;;;;5030210;28;20459;-52
2022/08/11 11:53:32;;;;;;;1.80;1.70;;;29.40;99.90;;;;;;5023718;28;20486;-53
2022/08/11 11:56:00;;;;;;;10.70;2.03;;;29.30;99.90;;;;;;5026270;28;20598;-51
2022/08/11 12:01:18;;;;;;;2.30;2.00;;;29.10;99.90;;;;;;5034484;28;20488;-52
2022/08/11 12:03:47;;;;;;;8.40;2.23;;;29.10;99.90;;;;;;5023048;28;20510;-52
2022/08/11 12:06:14;;;;;;;1.97;1.87;;;29.30;99.90;;;;;;5038332;28;20447;-52
2022/08/11 12:08:43;;;;;;;4.57;2.30;;;29.10;99.90;;;;;;5031713;28;20463;-52
2022/08/11 12:13:59;;;;;;;2.50;2.07;;;29.40;99.90;;;;;;5032836;28;20520;-51
2022/08/11 12:16:28;;;;;;;2.03;1.93;;;29.60;99.90;;;;;;5037344;28;21007;-51
2022/08/11 12:18:57;;;;;;;5.27;2.37;;;29.10;99.90;;;;;;5028069;28;20462;-52
2022/08/11 12:21:27;;;;;;;4.97;1.93;;;29.40;99.90;;;;;;5037649;28;20475;-51
2022/08/11 12:29:26;;;;;;;5.10;2.03;;;29.30;99.90;;;;;;5040159;28;20430;-51
2022/08/11 12:31:57;;;;;;;2.07;1.93;;;29.40;99.90;;;;;;5029063;28;20532;-52
2022/08/11 12:34:27;;;;;;;4.80;1.97;;;29.50;99.90;;;;;;5026877;28;21045;-51
2022/08/11 12:36:57;;;;;;;6.10;2.23;;;29.50;99.90;;;;;;5030038;28;20459;-52
2022/08/11 12:53:11;;;;;;;3.23;1.90;;;29.60;99.90;;;;;;5023203;28;20457;-51
2022/08/11 12:58:26;;;;;;;8.90;1.97;;;29.90;99.90;;;;;;5032530;28;20587;-52
2022/08/11 13:06:24;;;;;;;5.83;2.10;;;30.00;99.90;;;;;;5020978;28;20466;-51
2022/08/11 13:08:53;;;;;;;3.13;2.00;;;30.10;99.90;;;;;;5025988;28;20467;-52
2022/08/11 13:14:05;;;;;;;6.93;2.20;;;29.80;99.90;;;;;;5028211;28;22031;-51
2022/08/11 13:17:19;;;;;;;4.40;2.07;;;29.90;99.90;;;;;;5033356;28;20477;-53
2022/08/11 13:19:23;;;;;;;10.53;1.90;;;30.00;99.90;;;;;;5042051;28;20454;-51
2022/08/11 13:21:52;;;;;;;2.03;1.93;;;30.40;99.90;;;;;;5031590;28;20478;-52
2022/08/11 13:24:21;;;;;;;10.40;2.00;;;30.30;99.90;;;;;;5032843;28;20537;-52
2022/08/11 13:26:49;;;;;;;5.10;2.00;;;30.40;99.90;;;;;;5026185;28;20475;-53
2022/08/11 13:29:18;;;;;;;3.80;2.30;;;30.40;99.90;;;;;;5022306;28;20461;-51
2022/08/11 13:31:46;;;;;;;2.80;1.93;;;30.50;99.90;;;;;;5024648;28;20463;-51
2022/08/11 13:34:14;;;;;;;2.13;2.00;;;30.60;99.90;;;;;;5028143;28;20510;-52
2022/08/11 13:36:43;;;;;;;6.10;1.70;;;30.40;99.90;;;;;;5032506;28;20520;-53
2022/08/11 13:39:10;;;;;;;15.97;2.10;;;30.10;99.90;;;;;;5032364;28;20459;-53
2022/08/11 13:41:39;;;;;;;2.40;1.70;;;30.00;99.90;;;;;;5033914;28;20564;-54
2022/08/11 13:44:08;;;;;;;3.67;1.90;;;29.90;99.90;;;;;;5032637;28;20990;-53
2022/08/11 13:46:36;;;;;;;10.03;1.90;;;30.00;99.90;;;;;;5035907;28;20469;-51
2022/08/11 13:49:03;;;;;;;4.80;1.80;;;30.10;99.90;;;;;;5034205;28;20539;-51
2022/08/11 13:51:32;;;;;;;9.50;1.93;;;29.90;99.90;;;;;;5025930;28;20467;-51
2022/08/11 13:54:03;;;;;;;2.50;1.80;;;30.20;99.90;;;;;;5024907;28;21001;-52
2022/08/11 13:56:30;;;;;;;2.73;1.90;;;30.30;99.90;;;;;;5027287;28;20450;-52
2022/08/11 13:58:58;;;;;;;2.80;2.20;;;30.20;99.90;;;;;;5031888;28;20498;-51
2022/08/11 14:01:28;;;;;;;2.10;1.90;;;30.30;99.90;;;;;;5027625;28;20483;-52
2022/08/11 14:03:58;;;;;;;4.43;2.27;;;30.30;99.90;;;;;;5031804;28;20835;-51
2022/08/11 14:06:25;;;;;;;7.47;1.43;;;30.30;99.90;;;;;;5034784;28;20467;-51
2022/08/11 14:08:54;;;;;;;5.80;1.80;;;30.40;99.90;;;;;;5030089;28;20464;-51
2022/08/11 14:14:10;;;;;;;1.53;1.43;;;30.90;99.90;;;;;;5027620;28;20474;-52
2022/08/11 14:16:42;;;;;;;1.60;1.50;;;30.50;99.90;;;;;;5031958;28;20520;-52
2022/08/11 14:19:14;;;;;;;5.10;1.43;;;30.40;99.90;;;;;;5029525;28;20481;-51
2022/08/11 14:24:29;;;;;;;8.27;1.60;;;30.40;99.90;;;;;;5034097;28;20492;-52
2022/08/11 14:26:57;;;;;;;3.50;1.50;;;30.50;99.90;;;;;;5029915;28;20550;-51
2022/08/11 14:29:27;;;;;;;5.70;1.70;;;30.60;99.90;;;;;;5031728;28;20516;-52
2022/08/11 14:31:56;;;;;;;4.53;1.50;;;30.60;99.90;;;;;;5033305;28;20459;-53
2022/08/11 14:34:27;;;;;;;2.73;1.23;;;30.60;99.90;;;;;;5038617;28;20477;-53
2022/08/11 14:36:56;;;;;;;3.70;1.50;;;30.60;99.90;;;;;;5033353;28;20474;-51
2022/08/11 14:39:25;;;;;;;4.20;1.60;;;30.60;99.90;;;;;;5035810;28;20459;-52
2022/08/11 14:47:32;;;;;;;4.23;1.30;;;30.40;99.90;;;;;;5028257;28;20495;-52
2022/08/11 14:50:01;;;;;;;1.63;1.57;;;30.30;99.90;;;;;;5031290;28;20463;-52
2022/08/11 14:52:29;;;;;;;1.37;1.27;;;30.20;99.90;;;;;;5030337;28;20463;-52
2022/08/11 14:57:42;;;;;;;1.90;1.43;;;30.20;99.90;;;;;;5031709;28;20449;-51
2022/08/11 15:00:16;;;;;;;1.90;1.60;;;29.90;99.90;;;;;;5028049;28;20489;-51
2022/08/11 15:05:29;;;;;;;2.13;1.70;;;30.00;99.90;;;;;;5025724;28;20956;-52
2022/08/11 15:07:58;;;;;;;1.30;1.20;;;30.10;99.90;;;;;;5030387;28;20539;-52
2022/08/11 15:10:25;;;;;;;1.37;1.20;;;30.00;99.90;;;;;;5028789;28;20506;-52
2022/08/11 15:12:53;;;;;;;2.40;1.77;;;30.00;99.90;;;;;;5042036;28;20899;-52
2022/08/11 15:18:09;;;;;;;2.80;1.33;;;30.00;99.90;;;;;;5029219;28;20448;-52
2022/08/11 15:26:10;;;;;;;3.53;1.17;;;29.60;99.90;;;;;;5036777;28;20823;-52
2022/08/11 15:48:20;;;;;;;4.87;1.20;;;29.70;99.90;;;;;;5023087;28;20454;-52
2022/08/11 15:50:52;;;;;;;1.50;1.07;;;29.80;99.90;;;;;;5023986;28;20455;-51
2022/08/11 15:53:27;;;;;;;1.43;1.00;;;29.80;99.90;;;;;;5023533;28;21027;-54
2022/08/11 15:55:55;;;;;;;1.50;1.40;;;29.70;99.90;;;;;;5056639;22;20894;-51
2022/08/11 16:04:14;;;;;;;3.87;1.30;;;29.50;99.90;;;;;;5030530;28;20476;-51
2022/08/11 16:06:50;;;;;;;7.83;1.10;;;29.40;99.90;;;;;;5046724;28;20482;-50
2022/08/11 16:09:24;;;;;;;2.30;1.20;;;29.40;99.90;;;;;;5048390;28;20450;-50
2022/08/11 16:11:52;;;;;;;2.60;1.30;;;29.40;99.90;;;;;;5048685;28;20955;-50
2022/08/11 16:17:08;;;;;;;1.10;1.10;;;29.50;99.90;;;;;;5047506;28;20449;-50
2022/08/11 16:19:39;;;;;;;1.10;1.10;;;30.00;99.90;;;;;;5047171;28;21032;-50
2022/08/11 16:22:08;;;;;;;4.57;1.10;;;30.30;99.90;;;;;;5049423;28;21086;-51
2022/08/11 16:24:39;;;;;;;8.10;1.50;;;30.60;99.90;;;;;;5049005;28;20547;-50
2022/08/11 16:27:10;;;;;;;1.30;1.30;;;30.40;99.90;;;;;;5054727;28;20446;-50
2022/08/11 16:29:41;;;;;;;3.97;1.17;;;30.70;99.90;;;;;;5052681;28;20463;-50
2022/08/11 16:32:19;;;;;;;1.33;1.23;;;30.80;99.90;;;;;;5046103;28;20515;-51
2022/08/11 16:40:23;;;;;;;2.10;1.30;;;30.90;99.90;;;;;;5044526;28;20488;-51
2022/08/11 16:48:26;;;;;;;1.27;1.17;;;29.90;99.90;;;;;;5051945;28;20422;-50
2022/08/11 16:50:54;;;;;;;1.10;0.97;;;29.60;99.90;;;;;;5049319;28;20466;-49
2022/08/11 16:53:21;;;;;;;1.60;1.10;;;29.40;99.90;;;;;;5047760;28;20466;-50
2022/08/11 16:55:51;;;;;;;0.83;0.83;;;29.30;99.90;;;;;;5046557;28;20497;-50
2022/08/11 17:01:02;;;;;;;2.00;1.23;;;29.10;99.90;;;;;;5049832;28;20481;-51
2022/08/11 17:14:41;;;;;;;7.43;2.03;;;28.80;99.90;;;;;;5019076;28;20508;-50
2022/08/11 17:17:13;;;;;;;4.40;2.40;;;28.70;99.90;;;;;;5048605;28;20453;-50
2022/08/11 17:19:46;;;;;;;2.13;1.43;;;28.70;99.90;;;;;;5050573;28;20985;-50
2022/08/11 17:25:00;;;;;;;2.60;1.50;;;28.60;99.90;;;;;;5047696;28;20614;-50
2022/08/11 17:27:29;;;;;;;2.80;1.47;;;28.50;99.90;;;;;;5047565;28;20458;-50
2022/08/11 17:29:59;;;;;;;6.70;1.40;;;28.40;99.90;;;;;;5047494;28;20987;-50
2022/08/11 17:35:30;;;;;;;1.37;1.37;;;28.30;99.90;;;;;;5047542;28;21016;-50
2022/08/11 17:38:02;;;;;;;7.00;1.60;;;28.20;99.90;;;;;;5044754;28;20468;-50
2022/08/11 17:40:31;;;;;;;3.53;1.20;;;28.00;99.90;;;;;;5054045;28;20461;-50
2022/08/11 17:48:35;;;;;;;1.67;1.57;;;27.80;99.90;;;;;;5051353;28;20543;-50
2022/08/11 17:51:06;;;;;;;1.17;1.17;;;27.60;99.90;;;;;;5048302;28;20451;-50
2022/08/11 18:03:27;;;;;;;7.10;1.37;;;27.30;99.90;;;;;;5054985;28;20845;-50
2022/08/11 18:04:43;;;;;;;1.47;1.10;;;27.20;99.90;;;;;;5040168;28;20557;-50
